sensor_id;sensor_type;location;lat;lon;timestamp;temperature;humidity
24436;DHT22;12616;52.470;13.436;2023-04-24T00:01:32;11.70;1.00
24436;DHT22;12616;52.470;13.436;2023-04-24T00:04:02;11.60;43.80
24436;DHT22;12616;52.470;13.436;2023-04-24T00:06:29;11.60;99.90
24436;DHT22;12616;52.470;13.436;2023-04-24T00:08:59;11.70;94.90
24436;DHT22;12616;52.470;13.436;2023-04-24T00:11:25;11.60;99.90
24436;DHT22;12616;52.470;13.436;2023-04-24T00:13:54;11.60;99.90
24436;DHT22;12616;52.470;13.436;2023-04-24T00:16:21;11.60;99.90
24436;DHT22;12616;52.470;13.436;2023-04-24T00:18:47;11.60;99.90
24436;DHT22;12616;52.470;13.436;2023-04-24T00:21:14;11.60;99.90
24436;DHT22;12616;52.470;13.436;2023-04-24T00:23:43;11.50;99.90
24436;DHT22;12616;52.470;13.436;2023-04-24T00:26:10;11.50;99.90
24436;DHT22;12616;52.470;13.436;2023-04-24T00:28:36;11.40;99.90
24436;DHT22;12616;52.470;13.436;2023-04-24T00:31:05;11.40;99.90
24436;DHT22;12616;52.470;13.436;2023-04-24T00:33:32;11.40;99.90
24436;DHT22;12616;52.470;13.436;2023-04-24T00:38:26;11.40;99.90
24436;DHT22;12616;52.470;13.436;2023-04-24T00:40:53;11.40;99.90
24436;DHT22;12616;52.470;13.436;2023-04-24T00:43:20;11.30;1.00
24436;DHT22;12616;52.470;13.436;2023-04-24T00:45:47;11.30;1.00
24436;DHT22;12616;52.470;13.436;2023-04-24T00:48:16;11.30;1.00
24436;DHT22;12616;52.470;13.436;2023-04-24T00:50:43;11.30;1.00
24436;DHT22;12616;52.470;13.436;2023-04-24T00:53:10;11.30;1.00
24436;DHT22;12616;52.470;13.436;2023-04-24T00:55:37;11.30;1.00
24436;DHT22;12616;52.470;13.436;2023-04-24T00:58:04;11.30;1.00
24436;DHT22;12616;52.470;13.436;2023-04-24T01:00:31;11.30;1.00
24436;DHT22;12616;52.470;13.436;2023-04-24T01:02:59;11.20;1.00
24436;DHT22;12616;52.470;13.436;2023-04-24T01:05:28;11.20;1.00
24436;DHT22;12616;52.470;13.436;2023-04-24T01:07:55;11.30;1.00
24436;DHT22;12616;52.470;13.436;2023-04-24T01:10:23;11.10;21.60
24436;DHT22;12616;52.470;13.436;2023-04-24T01:12:51;11.50;62.40
24436;DHT22;12616;52.470;13.436;2023-04-24T01:15:18;11.20;1.00
24436;DHT22;12616;52.470;13.436;2023-04-24T01:17:45;11.20;1.00
24436;DHT22;12616;52.470;13.436;2023-04-24T01:20:13;11.20;1.00
24436;DHT22;12616;52.470;13.436;2023-04-24T01:25:09;11.20;22.60
24436;DHT22;12616;52.470;13.436;2023-04-24T01:27:36;11.20;52.30
24436;DHT22;12616;52.470;13.436;2023-04-24T01:30:05;11.20;94.20
24436;DHT22;12616;52.470;13.436;2023-04-24T01:32:32;11.20;99.90
24436;DHT22;12616;52.470;13.436;2023-04-24T01:34:59;11.20;99.90
24436;DHT22;12616;52.470;13.436;2023-04-24T01:37:26;11.20;99.90
24436;DHT22;12616;52.470;13.436;2023-04-24T01:39:55;11.20;99.90
24436;DHT22;12616;52.470;13.436;2023-04-24T01:42:22;11.50;1.00
24436;DHT22;12616;52.470;13.436;2023-04-24T01:44:49;11.10;99.90
24436;DHT22;12616;52.470;13.436;2023-04-24T01:47:18;11.20;99.90
24436;DHT22;12616;52.470;13.436;2023-04-24T01:49:45;11.20;99.90
24436;DHT22;12616;52.470;13.436;2023-04-24T01:52:14;11.20;99.90
24436;DHT22;12616;52.470;13.436;2023-04-24T01:54:44;11.30;99.90
24436;DHT22;12616;52.470;13.436;2023-04-24T01:57:13;11.20;99.90
24436;DHT22;12616;52.470;13.436;2023-04-24T01:59:41;11.20;99.90
24436;DHT22;12616;52.470;13.436;2023-04-24T02:02:08;11.20;99.90
24436;DHT22;12616;52.470;13.436;2023-04-24T02:04:35;11.20;99.90
24436;DHT22;12616;52.470;13.436;2023-04-24T02:07:01;11.30;99.90
24436;DHT22;12616;52.470;13.436;2023-04-24T02:09:28;11.30;99.90
24436;DHT22;12616;52.470;13.436;2023-04-24T02:11:55;11.30;99.90
24436;DHT22;12616;52.470;13.436;2023-04-24T02:14:24;11.30;99.90
24436;DHT22;12616;52.470;13.436;2023-04-24T02:16:51;11.30;99.90
24436;DHT22;12616;52.470;13.436;2023-04-24T02:19:18;11.20;1.00
24436;DHT22;12616;52.470;13.436;2023-04-24T02:21:45;11.30;99.90
24436;DHT22;12616;52.470;13.436;2023-04-24T02:24:12;11.30;99.90
24436;DHT22;12616;52.470;13.436;2023-04-24T02:26:39;11.40;1.00
24436;DHT22;12616;52.470;13.436;2023-04-24T02:29:06;11.40;99.90
24436;DHT22;12616;52.470;13.436;2023-04-24T02:31:34;11.40;1.00
24436;DHT22;12616;52.470;13.436;2023-04-24T02:34:01;11.40;1.00
24436;DHT22;12616;52.470;13.436;2023-04-24T02:36:28;11.40;99.90
24436;DHT22;12616;52.470;13.436;2023-04-24T02:38:55;11.40;99.90
24436;DHT22;12616;52.470;13.436;2023-04-24T02:41:22;11.50;99.90
24436;DHT22;12616;52.470;13.436;2023-04-24T02:43:49;11.50;99.90
24436;DHT22;12616;52.470;13.436;2023-04-24T02:46:16;11.50;99.90
24436;DHT22;12616;52.470;13.436;2023-04-24T02:48:44;11.40;1.00
24436;DHT22;12616;52.470;13.436;2023-04-24T02:51:11;11.40;1.00
24436;DHT22;12616;52.470;13.436;2023-04-24T02:53:38;11.50;1.00
24436;DHT22;12616;52.470;13.436;2023-04-24T02:56:05;11.20;1.00
24436;DHT22;12616;52.470;13.436;2023-04-24T02:58:32;11.60;1.00
24436;DHT22;12616;52.470;13.436;2023-04-24T03:00:59;11.60;1.00
24436;DHT22;12616;52.470;13.436;2023-04-24T03:03:26;11.60;99.90
24436;DHT22;12616;52.470;13.436;2023-04-24T03:05:54;11.70;99.90
24436;DHT22;12616;52.470;13.436;2023-04-24T03:08:21;11.70;99.90
24436;DHT22;12616;52.470;13.436;2023-04-24T03:10:48;11.70;99.90
24436;DHT22;12616;52.470;13.436;2023-04-24T03:13:15;11.70;99.90
24436;DHT22;12616;52.470;13.436;2023-04-24T03:15:42;11.70;99.90
24436;DHT22;12616;52.470;13.436;2023-04-24T03:18:09;11.80;99.90
24436;DHT22;12616;52.470;13.436;2023-04-24T03:23:06;11.80;99.90
24436;DHT22;12616;52.470;13.436;2023-04-24T03:25:33;11.80;99.90
24436;DHT22;12616;52.470;13.436;2023-04-24T03:28:00;11.80;99.90
24436;DHT22;12616;52.470;13.436;2023-04-24T03:30:27;11.80;99.90
24436;DHT22;12616;52.470;13.436;2023-04-24T03:32:53;11.80;99.90
24436;DHT22;12616;52.470;13.436;2023-04-24T03:35:21;11.90;99.90
24436;DHT22;12616;52.470;13.436;2023-04-24T03:37:48;11.90;99.90
24436;DHT22;12616;52.470;13.436;2023-04-24T03:40:16;11.90;99.90
24436;DHT22;12616;52.470;13.436;2023-04-24T03:42:43;12.10;99.90
24436;DHT22;12616;52.470;13.436;2023-04-24T03:45:10;11.90;99.90
24436;DHT22;12616;52.470;13.436;2023-04-24T03:47:37;12.00;99.90
24436;DHT22;12616;52.470;13.436;2023-04-24T03:50:04;11.90;99.90
24436;DHT22;12616;52.470;13.436;2023-04-24T03:52:31;11.90;99.90
24436;DHT22;12616;52.470;13.436;2023-04-24T03:54:58;12.00;99.90
24436;DHT22;12616;52.470;13.436;2023-04-24T03:57:26;11.90;99.90
24436;DHT22;12616;52.470;13.436;2023-04-24T03:59:53;11.90;99.90
24436;DHT22;12616;52.470;13.436;2023-04-24T04:02:20;11.90;99.90
24436;DHT22;12616;52.470;13.436;2023-04-24T04:04:47;11.90;99.90
24436;DHT22;12616;52.470;13.436;2023-04-24T04:07:14;11.90;99.90
24436;DHT22;12616;52.470;13.436;2023-04-24T04:09:41;11.90;99.90
24436;DHT22;12616;52.470;13.436;2023-04-24T04:12:08;11.90;99.90
24436;DHT22;12616;52.470;13.436;2023-04-24T04:14:36;12.00;99.90
24436;DHT22;12616;52.470;13.436;2023-04-24T04:17:06;11.90;99.90
24436;DHT22;12616;52.470;13.436;2023-04-24T04:19:32;11.90;99.90
24436;DHT22;12616;52.470;13.436;2023-04-24T04:22:00;11.90;99.90
24436;DHT22;12616;52.470;13.436;2023-04-24T04:24:27;11.90;99.90
24436;DHT22;12616;52.470;13.436;2023-04-24T04:26:54;12.00;99.90
24436;DHT22;12616;52.470;13.436;2023-04-24T04:29:22;11.90;99.90
24436;DHT22;12616;52.470;13.436;2023-04-24T04:31:50;11.90;99.90
24436;DHT22;12616;52.470;13.436;2023-04-24T04:34:17;12.00;99.90
24436;DHT22;12616;52.470;13.436;2023-04-24T04:36:45;12.00;99.90
24436;DHT22;12616;52.470;13.436;2023-04-24T04:39:11;12.00;99.90
24436;DHT22;12616;52.470;13.436;2023-04-24T04:41:39;12.00;99.90
24436;DHT22;12616;52.470;13.436;2023-04-24T04:44:07;12.00;99.90
24436;DHT22;12616;52.470;13.436;2023-04-24T04:46:34;12.10;99.90
24436;DHT22;12616;52.470;13.436;2023-04-24T04:49:04;12.10;99.90
24436;DHT22;12616;52.470;13.436;2023-04-24T04:51:31;12.10;99.90
24436;DHT22;12616;52.470;13.436;2023-04-24T04:53:58;12.10;99.90
24436;DHT22;12616;52.470;13.436;2023-04-24T04:56:25;12.20;99.90
24436;DHT22;12616;52.470;13.436;2023-04-24T04:58:52;12.20;46.80
24436;DHT22;12616;52.470;13.436;2023-04-24T05:01:19;12.20;6.10
24436;DHT22;12616;52.470;13.436;2023-04-24T05:03:46;12.30;1.00
24436;DHT22;12616;52.470;13.436;2023-04-24T05:06:14;12.30;1.00
24436;DHT22;12616;52.470;13.436;2023-04-24T05:08:41;12.40;1.00
24436;DHT22;12616;52.470;13.436;2023-04-24T05:11:08;12.30;1.00
24436;DHT22;12616;52.470;13.436;2023-04-24T05:13:35;12.30;1.00
24436;DHT22;12616;52.470;13.436;2023-04-24T05:16:02;12.30;1.00
24436;DHT22;12616;52.470;13.436;2023-04-24T05:18:29;12.20;1.00
24436;DHT22;12616;52.470;13.436;2023-04-24T05:20:56;12.30;1.00
24436;DHT22;12616;52.470;13.436;2023-04-24T05:23:24;12.30;1.00
24436;DHT22;12616;52.470;13.436;2023-04-24T05:25:51;12.30;1.00
24436;DHT22;12616;52.470;13.436;2023-04-24T05:28:18;12.30;1.00
24436;DHT22;12616;52.470;13.436;2023-04-24T05:30:45;12.30;1.00
24436;DHT22;12616;52.470;13.436;2023-04-24T05:33:12;12.30;1.00
24436;DHT22;12616;52.470;13.436;2023-04-24T05:35:40;12.40;99.90
24436;DHT22;12616;52.470;13.436;2023-04-24T05:38:11;12.50;99.90
24436;DHT22;12616;52.470;13.436;2023-04-24T05:40:39;12.50;99.90
24436;DHT22;12616;52.470;13.436;2023-04-24T05:43:06;12.50;99.90
24436;DHT22;12616;52.470;13.436;2023-04-24T05:45:33;12.60;99.90
24436;DHT22;12616;52.470;13.436;2023-04-24T05:48:01;12.70;1.00
24436;DHT22;12616;52.470;13.436;2023-04-24T05:50:28;12.70;1.00
24436;DHT22;12616;52.470;13.436;2023-04-24T05:52:55;12.70;1.00
24436;DHT22;12616;52.470;13.436;2023-04-24T05:55:23;12.70;1.00
24436;DHT22;12616;52.470;13.436;2023-04-24T05:57:52;12.80;99.90
24436;DHT22;12616;52.470;13.436;2023-04-24T06:00:19;12.70;99.90
24436;DHT22;12616;52.470;13.436;2023-04-24T06:02:46;12.60;1.00
24436;DHT22;12616;52.470;13.436;2023-04-24T06:05:13;12.80;99.90
24436;DHT22;12616;52.470;13.436;2023-04-24T06:07:40;12.90;99.90
24436;DHT22;12616;52.470;13.436;2023-04-24T06:10:08;12.80;99.90
24436;DHT22;12616;52.470;13.436;2023-04-24T06:12:35;13.20;99.90
24436;DHT22;12616;52.470;13.436;2023-04-24T06:15:04;13.20;99.90
24436;DHT22;12616;52.470;13.436;2023-04-24T06:17:31;13.30;1.00
24436;DHT22;12616;52.470;13.436;2023-04-24T06:19:58;13.40;1.00
24436;DHT22;12616;52.470;13.436;2023-04-24T06:22:25;13.40;99.90
24436;DHT22;12616;52.470;13.436;2023-04-24T06:24:52;13.40;99.90
24436;DHT22;12616;52.470;13.436;2023-04-24T06:27:19;13.40;99.90
24436;DHT22;12616;52.470;13.436;2023-04-24T06:29:45;13.40;99.90
24436;DHT22;12616;52.470;13.436;2023-04-24T06:32:19;13.30;90.00
24436;DHT22;12616;52.470;13.436;2023-04-24T06:34:46;13.30;99.90
24436;DHT22;12616;52.470;13.436;2023-04-24T06:37:13;13.30;99.90
24436;DHT22;12616;52.470;13.436;2023-04-24T06:39:41;13.30;99.90
24436;DHT22;12616;52.470;13.436;2023-04-24T06:42:08;13.40;1.00
24436;DHT22;12616;52.470;13.436;2023-04-24T06:44:35;13.50;99.90
24436;DHT22;12616;52.470;13.436;2023-04-24T06:47:06;13.60;99.90
24436;DHT22;12616;52.470;13.436;2023-04-24T06:49:35;14.10;99.90
24436;DHT22;12616;52.470;13.436;2023-04-24T06:52:02;13.90;1.00
24436;DHT22;12616;52.470;13.436;2023-04-24T06:54:29;14.00;1.00
24436;DHT22;12616;52.470;13.436;2023-04-24T06:56:56;14.10;1.00
24436;DHT22;12616;52.470;13.436;2023-04-24T06:59:23;14.20;1.00
24436;DHT22;12616;52.470;13.436;2023-04-24T07:01:50;14.40;1.00
24436;DHT22;12616;52.470;13.436;2023-04-24T07:04:17;14.50;99.90
24436;DHT22;12616;52.470;13.436;2023-04-24T07:06:47;14.60;99.90
24436;DHT22;12616;52.470;13.436;2023-04-24T07:09:14;14.80;45.00
24436;DHT22;12616;52.470;13.436;2023-04-24T07:11:43;14.70;1.00
24436;DHT22;12616;52.470;13.436;2023-04-24T07:14:11;14.70;22.10
24436;DHT22;12616;52.470;13.436;2023-04-24T07:16:38;14.70;1.00
24436;DHT22;12616;52.470;13.436;2023-04-24T07:19:05;14.50;1.00
24436;DHT22;12616;52.470;13.436;2023-04-24T07:21:32;14.80;99.90
24436;DHT22;12616;52.470;13.436;2023-04-24T07:24:00;14.90;1.00
24436;DHT22;12616;52.470;13.436;2023-04-24T07:26:29;15.20;99.90
24436;DHT22;12616;52.470;13.436;2023-04-24T07:28:56;15.40;1.00
24436;DHT22;12616;52.470;13.436;2023-04-24T07:31:23;15.10;1.00
24436;DHT22;12616;52.470;13.436;2023-04-24T07:33:50;15.50;99.90
24436;DHT22;12616;52.470;13.436;2023-04-24T07:36:19;15.20;1.00
24436;DHT22;12616;52.470;13.436;2023-04-24T07:38:46;15.30;1.00
24436;DHT22;12616;52.470;13.436;2023-04-24T07:41:14;15.30;1.00
24436;DHT22;12616;52.470;13.436;2023-04-24T07:43:41;15.50;1.00
24436;DHT22;12616;52.470;13.436;2023-04-24T07:46:08;15.50;1.00
24436;DHT22;12616;52.470;13.436;2023-04-24T07:48:36;15.50;1.00
24436;DHT22;12616;52.470;13.436;2023-04-24T07:51:03;15.60;1.00
24436;DHT22;12616;52.470;13.436;2023-04-24T07:53:33;15.50;14.70
24436;DHT22;12616;52.470;13.436;2023-04-24T07:56:00;15.50;1.00
24436;DHT22;12616;52.470;13.436;2023-04-24T07:58:28;15.40;1.00
24436;DHT22;12616;52.470;13.436;2023-04-24T08:00:55;15.30;1.00
24436;DHT22;12616;52.470;13.436;2023-04-24T08:03:22;15.40;1.00
24436;DHT22;12616;52.470;13.436;2023-04-24T08:05:49;15.60;1.00
24436;DHT22;12616;52.470;13.436;2023-04-24T08:08:17;15.80;1.00
24436;DHT22;12616;52.470;13.436;2023-04-24T08:10:44;15.90;1.00
24436;DHT22;12616;52.470;13.436;2023-04-24T08:13:11;15.80;1.00
24436;DHT22;12616;52.470;13.436;2023-04-24T08:15:39;15.70;99.90
24436;DHT22;12616;52.470;13.436;2023-04-24T08:18:07;15.80;1.00
24436;DHT22;12616;52.470;13.436;2023-04-24T08:20:35;15.80;1.00
24436;DHT22;12616;52.470;13.436;2023-04-24T08:23:02;15.90;1.00
24436;DHT22;12616;52.470;13.436;2023-04-24T08:25:31;15.70;1.00
24436;DHT22;12616;52.470;13.436;2023-04-24T08:30:28;15.80;1.00
24436;DHT22;12616;52.470;13.436;2023-04-24T08:32:56;16.00;1.00
24436;DHT22;12616;52.470;13.436;2023-04-24T08:35:23;16.20;1.00
24436;DHT22;12616;52.470;13.436;2023-04-24T08:37:51;16.00;1.00
24436;DHT22;12616;52.470;13.436;2023-04-24T08:40:20;16.20;1.00
24436;DHT22;12616;52.470;13.436;2023-04-24T08:42:49;15.20;36.70
24436;DHT22;12616;52.470;13.436;2023-04-24T08:45:19;16.60;1.00
24436;DHT22;12616;52.470;13.436;2023-04-24T08:47:46;16.40;1.00
24436;DHT22;12616;52.470;13.436;2023-04-24T08:50:16;16.50;1.00
24436;DHT22;12616;52.470;13.436;2023-04-24T08:52:43;16.70;1.00
24436;DHT22;12616;52.470;13.436;2023-04-24T08:55:10;16.50;1.00
24436;DHT22;12616;52.470;13.436;2023-04-24T08:57:37;16.90;1.00
24436;DHT22;12616;52.470;13.436;2023-04-24T09:00:06;17.20;1.00
24436;DHT22;12616;52.470;13.436;2023-04-24T09:02:34;17.30;1.00
24436;DHT22;12616;52.470;13.436;2023-04-24T09:05:01;16.90;1.00
24436;DHT22;12616;52.470;13.436;2023-04-24T09:07:32;17.00;1.00
24436;DHT22;12616;52.470;13.436;2023-04-24T09:10:02;16.90;1.00
24436;DHT22;12616;52.470;13.436;2023-04-24T09:12:29;17.10;1.00
24436;DHT22;12616;52.470;13.436;2023-04-24T09:14:56;17.10;1.00
24436;DHT22;12616;52.470;13.436;2023-04-24T09:17:24;17.00;1.00
24436;DHT22;12616;52.470;13.436;2023-04-24T09:19:52;16.90;1.00
24436;DHT22;12616;52.470;13.436;2023-04-24T09:22:19;16.70;1.00
24436;DHT22;12616;52.470;13.436;2023-04-24T09:24:48;16.60;1.00
24436;DHT22;12616;52.470;13.436;2023-04-24T09:27:28;16.80;1.00
24436;DHT22;12616;52.470;13.436;2023-04-24T09:29:56;17.70;1.00
24436;DHT22;12616;52.470;13.436;2023-04-24T09:32:24;16.50;1.00
24436;DHT22;12616;52.470;13.436;2023-04-24T09:35:06;16.60;1.00
24436;DHT22;12616;52.470;13.436;2023-04-24T09:37:35;16.50;1.00
24436;DHT22;12616;52.470;13.436;2023-04-24T09:40:17;16.60;1.00
24436;DHT22;12616;52.470;13.436;2023-04-24T09:42:45;16.60;52.40
24436;DHT22;12616;52.470;13.436;2023-04-24T09:45:12;16.40;1.00
24436;DHT22;12616;52.470;13.436;2023-04-24T09:47:40;16.40;1.00
24436;DHT22;12616;52.470;13.436;2023-04-24T09:50:12;16.40;1.00
24436;DHT22;12616;52.470;13.436;2023-04-24T09:52:41;16.70;1.00
24436;DHT22;12616;52.470;13.436;2023-04-24T09:55:19;16.60;1.00
24436;DHT22;12616;52.470;13.436;2023-04-24T09:57:53;16.80;1.00
24436;DHT22;12616;52.470;13.436;2023-04-24T10:00:25;17.00;1.00
24436;DHT22;12616;52.470;13.436;2023-04-24T10:03:00;17.10;36.90
24436;DHT22;12616;52.470;13.436;2023-04-24T10:05:28;17.10;1.00
24436;DHT22;12616;52.470;13.436;2023-04-24T10:08:01;17.10;1.00
24436;DHT22;12616;52.470;13.436;2023-04-24T10:10:30;17.00;1.00
24436;DHT22;12616;52.470;13.436;2023-04-24T10:12:57;17.00;1.00
24436;DHT22;12616;52.470;13.436;2023-04-24T10:15:24;17.30;1.00
24436;DHT22;12616;52.470;13.436;2023-04-24T10:17:52;17.10;1.00
24436;DHT22;12616;52.470;13.436;2023-04-24T10:20:20;17.00;1.00
24436;DHT22;12616;52.470;13.436;2023-04-24T10:22:48;17.80;25.40
24436;DHT22;12616;52.470;13.436;2023-04-24T10:25:18;17.70;1.00
24436;DHT22;12616;52.470;13.436;2023-04-24T10:27:48;17.90;1.00
24436;DHT22;12616;52.470;13.436;2023-04-24T10:30:15;17.90;1.00
24436;DHT22;12616;52.470;13.436;2023-04-24T10:32:42;17.60;1.00
24436;DHT22;12616;52.470;13.436;2023-04-24T10:35:10;17.80;1.00
24436;DHT22;12616;52.470;13.436;2023-04-24T10:37:42;17.50;1.00
24436;DHT22;12616;52.470;13.436;2023-04-24T10:40:10;17.40;1.00
24436;DHT22;12616;52.470;13.436;2023-04-24T10:42:40;16.90;1.00
24436;DHT22;12616;52.470;13.436;2023-04-24T10:45:17;17.00;1.00
24436;DHT22;12616;52.470;13.436;2023-04-24T10:47:54;16.80;1.00
24436;DHT22;12616;52.470;13.436;2023-04-24T10:50:24;16.60;1.00
24436;DHT22;12616;52.470;13.436;2023-04-24T10:52:51;16.70;1.00
24436;DHT22;12616;52.470;13.436;2023-04-24T10:55:41;16.80;25.90
24436;DHT22;12616;52.470;13.436;2023-04-24T10:58:08;17.00;1.00
24436;DHT22;12616;52.470;13.436;2023-04-24T11:00:38;16.70;1.00
24436;DHT22;12616;52.470;13.436;2023-04-24T11:03:06;16.80;1.00
24436;DHT22;12616;52.470;13.436;2023-04-24T11:05:54;17.00;1.00
24436;DHT22;12616;52.470;13.436;2023-04-24T11:08:27;17.10;1.00
24436;DHT22;12616;52.470;13.436;2023-04-24T11:11:03;17.30;1.00
24436;DHT22;12616;52.470;13.436;2023-04-24T11:14:02;17.50;1.00
24436;DHT22;12616;52.470;13.436;2023-04-24T11:16:32;17.80;1.00
24436;DHT22;12616;52.470;13.436;2023-04-24T11:19:02;17.80;1.00
24436;DHT22;12616;52.470;13.436;2023-04-24T11:21:40;17.90;1.00
24436;DHT22;12616;52.470;13.436;2023-04-24T11:24:28;17.40;1.00
24436;DHT22;12616;52.470;13.436;2023-04-24T11:26:58;17.60;1.00
24436;DHT22;12616;52.470;13.436;2023-04-24T11:29:43;17.60;1.00
24436;DHT22;12616;52.470;13.436;2023-04-24T11:32:26;17.50;1.00
24436;DHT22;12616;52.470;13.436;2023-04-24T11:34:53;16.40;1.00
24436;DHT22;12616;52.470;13.436;2023-04-24T11:37:22;16.40;1.00
24436;DHT22;12616;52.470;13.436;2023-04-24T11:39:51;15.00;99.90
24436;DHT22;12616;52.470;13.436;2023-04-24T11:42:18;14.40;99.90
24436;DHT22;12616;52.470;13.436;2023-04-24T11:44:46;14.30;99.90
24436;DHT22;12616;52.470;13.436;2023-04-24T11:47:14;14.20;99.90
24436;DHT22;12616;52.470;13.436;2023-04-24T11:49:42;14.40;1.00
24436;DHT22;12616;52.470;13.436;2023-04-24T11:52:09;14.60;1.00
24436;DHT22;12616;52.470;13.436;2023-04-24T11:54:37;14.80;99.90
24436;DHT22;12616;52.470;13.436;2023-04-24T11:57:04;15.00;1.00
24436;DHT22;12616;52.470;13.436;2023-04-24T11:59:35;15.20;1.00
24436;DHT22;12616;52.470;13.436;2023-04-24T12:02:03;15.50;2.10
24436;DHT22;12616;52.470;13.436;2023-04-24T12:04:38;15.70;1.00
24436;DHT22;12616;52.470;13.436;2023-04-24T12:07:07;16.40;99.90
24436;DHT22;12616;52.470;13.436;2023-04-24T12:09:42;16.10;1.00
24436;DHT22;12616;52.470;13.436;2023-04-24T12:12:09;16.20;99.90
24436;DHT22;12616;52.470;13.436;2023-04-24T12:14:43;16.50;14.70
24436;DHT22;12616;52.470;13.436;2023-04-24T12:17:10;16.30;99.90
24436;DHT22;12616;52.470;13.436;2023-04-24T12:19:37;16.30;99.90
24436;DHT22;12616;52.470;13.436;2023-04-24T12:22:06;16.40;99.90
24436;DHT22;12616;52.470;13.436;2023-04-24T12:24:33;16.60;1.00
24436;DHT22;12616;52.470;13.436;2023-04-24T12:27:00;16.60;1.00
24436;DHT22;12616;52.470;13.436;2023-04-24T12:29:28;16.70;1.00
24436;DHT22;12616;52.470;13.436;2023-04-24T12:31:54;16.70;1.00
24436;DHT22;12616;52.470;13.436;2023-04-24T12:34:23;17.00;1.00
24436;DHT22;12616;52.470;13.436;2023-04-24T12:36:51;17.00;1.00
24436;DHT22;12616;52.470;13.436;2023-04-24T12:39:19;17.00;1.00
24436;DHT22;12616;52.470;13.436;2023-04-24T12:41:55;17.10;1.00
24436;DHT22;12616;52.470;13.436;2023-04-24T12:44:29;17.20;1.00
24436;DHT22;12616;52.470;13.436;2023-04-24T12:46:57;17.20;1.00
24436;DHT22;12616;52.470;13.436;2023-04-24T12:49:24;17.20;1.00
24436;DHT22;12616;52.470;13.436;2023-04-24T12:51:51;17.30;1.00
24436;DHT22;12616;52.470;13.436;2023-04-24T12:54:19;17.40;1.00
24436;DHT22;12616;52.470;13.436;2023-04-24T12:56:46;18.00;1.00
24436;DHT22;12616;52.470;13.436;2023-04-24T12:59:13;17.70;1.00
24436;DHT22;12616;52.470;13.436;2023-04-24T13:01:40;17.80;1.00
24436;DHT22;12616;52.470;13.436;2023-04-24T13:04:07;17.80;99.90
24436;DHT22;12616;52.470;13.436;2023-04-24T13:06:34;17.90;1.00
24436;DHT22;12616;52.470;13.436;2023-04-24T13:09:01;18.20;99.90
24436;DHT22;12616;52.470;13.436;2023-04-24T13:11:30;18.30;99.90
24436;DHT22;12616;52.470;13.436;2023-04-24T13:16:24;18.40;99.90
24436;DHT22;12616;52.470;13.436;2023-04-24T13:18:51;18.20;99.90
24436;DHT22;12616;52.470;13.436;2023-04-24T13:21:18;18.10;99.90
24436;DHT22;12616;52.470;13.436;2023-04-24T13:23:45;17.90;99.90
24436;DHT22;12616;52.470;13.436;2023-04-24T13:26:11;17.70;99.90
24436;DHT22;12616;52.470;13.436;2023-04-24T13:28:39;17.70;99.90
24436;DHT22;12616;52.470;13.436;2023-04-24T13:31:06;17.40;1.00
24436;DHT22;12616;52.470;13.436;2023-04-24T13:33:33;17.70;99.90
24436;DHT22;12616;52.470;13.436;2023-04-24T13:36:00;17.80;99.90
24436;DHT22;12616;52.470;13.436;2023-04-24T13:38:27;18.00;99.90
24436;DHT22;12616;52.470;13.436;2023-04-24T13:40:54;18.00;99.90
24436;DHT22;12616;52.470;13.436;2023-04-24T13:43:21;18.10;99.90
24436;DHT22;12616;52.470;13.436;2023-04-24T13:45:49;18.20;99.90
24436;DHT22;12616;52.470;13.436;2023-04-24T13:48:16;18.20;99.90
24436;DHT22;12616;52.470;13.436;2023-04-24T13:50:43;18.20;99.90
24436;DHT22;12616;52.470;13.436;2023-04-24T13:53:13;18.20;99.90
24436;DHT22;12616;52.470;13.436;2023-04-24T13:55:40;18.10;99.90
24436;DHT22;12616;52.470;13.436;2023-04-24T13:58:07;18.00;99.90
24436;DHT22;12616;52.470;13.436;2023-04-24T14:00:34;17.90;99.90
24436;DHT22;12616;52.470;13.436;2023-04-24T14:03:02;17.90;99.90
24436;DHT22;12616;52.470;13.436;2023-04-24T14:05:29;17.80;99.90
24436;DHT22;12616;52.470;13.436;2023-04-24T14:07:56;18.00;99.90
24436;DHT22;12616;52.470;13.436;2023-04-24T14:10:23;18.10;99.90
24436;DHT22;12616;52.470;13.436;2023-04-24T14:12:51;18.20;1.00
24436;DHT22;12616;52.470;13.436;2023-04-24T14:15:18;17.90;99.90
24436;DHT22;12616;52.470;13.436;2023-04-24T14:17:45;17.80;99.90
24436;DHT22;12616;52.470;13.436;2023-04-24T14:20:13;17.60;99.90
24436;DHT22;12616;52.470;13.436;2023-04-24T14:22:40;17.70;1.00
24436;DHT22;12616;52.470;13.436;2023-04-24T14:25:08;17.50;99.90
24436;DHT22;12616;52.470;13.436;2023-04-24T14:27:35;17.80;1.00
24436;DHT22;12616;52.470;13.436;2023-04-24T14:30:03;17.40;99.90
24436;DHT22;12616;52.470;13.436;2023-04-24T14:32:30;17.60;99.90
24436;DHT22;12616;52.470;13.436;2023-04-24T14:34:56;17.90;99.90
24436;DHT22;12616;52.470;13.436;2023-04-24T14:37:24;17.90;99.90
24436;DHT22;12616;52.470;13.436;2023-04-24T14:39:51;17.70;99.90
24436;DHT22;12616;52.470;13.436;2023-04-24T14:42:18;17.70;99.90
24436;DHT22;12616;52.470;13.436;2023-04-24T14:44:45;18.00;1.00
24436;DHT22;12616;52.470;13.436;2023-04-24T14:47:12;17.60;99.90
24436;DHT22;12616;52.470;13.436;2023-04-24T14:49:38;17.60;99.90
24436;DHT22;12616;52.470;13.436;2023-04-24T14:52:06;17.50;99.90
24436;DHT22;12616;52.470;13.436;2023-04-24T14:54:35;17.50;99.90
24436;DHT22;12616;52.470;13.436;2023-04-24T14:57:02;17.70;99.90
24436;DHT22;12616;52.470;13.436;2023-04-24T14:59:28;17.80;99.90
24436;DHT22;12616;52.470;13.436;2023-04-24T15:01:56;17.90;99.90
24436;DHT22;12616;52.470;13.436;2023-04-24T15:04:24;17.70;99.90
24436;DHT22;12616;52.470;13.436;2023-04-24T15:06:51;17.40;99.90
24436;DHT22;12616;52.470;13.436;2023-04-24T15:09:19;17.30;99.90
24436;DHT22;12616;52.470;13.436;2023-04-24T15:11:47;17.00;99.90
24436;DHT22;12616;52.470;13.436;2023-04-24T15:14:14;17.00;99.90
24436;DHT22;12616;52.470;13.436;2023-04-24T15:16:41;17.10;99.90
24436;DHT22;12616;52.470;13.436;2023-04-24T15:19:09;17.10;99.90
24436;DHT22;12616;52.470;13.436;2023-04-24T15:21:36;16.70;1.00
24436;DHT22;12616;52.470;13.436;2023-04-24T15:24:03;17.10;99.90
24436;DHT22;12616;52.470;13.436;2023-04-24T15:26:30;17.30;99.90
24436;DHT22;12616;52.470;13.436;2023-04-24T15:28:58;17.60;99.90
24436;DHT22;12616;52.470;13.436;2023-04-24T15:31:25;18.40;99.90
24436;DHT22;12616;52.470;13.436;2023-04-24T15:33:52;18.40;99.90
24436;DHT22;12616;52.470;13.436;2023-04-24T15:36:20;17.60;99.90
24436;DHT22;12616;52.470;13.436;2023-04-24T15:38:47;17.00;99.90
24436;DHT22;12616;52.470;13.436;2023-04-24T15:41:14;16.70;99.90